createdAt,value
2022-09-21T00:01:33.870Z,76.95
2022-09-21T00:06:38.150Z,76.74
2022-09-21T00:11:40.337Z,76.89
2022-09-21T00:16:43.540Z,76.75
2022-09-21T00:21:45.734Z,76.62
2022-09-21T00:26:47.844Z,76.35
2022-09-21T00:31:50.070Z,76.60
2022-09-21T00:36:52.322Z,76.45
2022-09-21T00:41:54.522Z,76.26
2022-09-21T00:47:02.543Z,76.54
2022-09-21T00:52:05.746Z,76.21
2022-09-21T00:57:08.262Z,76.38
2022-09-21T01:02:10.590Z,76.49
2022-09-21T01:07:19.555Z,76.65
2022-09-21T01:12:51.874Z,76.77
2022-09-21T01:17:59.962Z,76.69
2022-09-21T01:23:26.537Z,77.15
2022-09-21T01:28:34.855Z,77.16
2022-09-21T01:33:41.536Z,77.18
2022-09-21T01:38:48.024Z,77.13
2022-09-21T01:43:55.770Z,77.24
2022-09-21T01:49:01.210Z,77.36
2022-09-21T01:54:10.370Z,77.44
2022-09-21T01:59:27.068Z,77.59
2022-09-21T02:04:29.338Z,77.16
2022-09-21T02:09:31.999Z,77.27
2022-09-21T02:14:35.658Z,77.20
2022-09-21T02:19:46.541Z,77.39
2022-09-21T02:24:50.243Z,77.25
2022-09-21T02:30:26.408Z,77.55
2022-09-21T02:35:36.406Z,77.46
2022-09-21T02:40:43.928Z,77.50
2022-09-21T02:45:51.580Z,77.36
2022-09-21T02:51:04.725Z,77.52
2022-09-21T02:56:08.217Z,77.55
2022-09-21T03:01:15.104Z,77.74
2022-09-21T03:06:17.229Z,77.54
2022-09-21T03:11:20.468Z,77.69
2022-09-21T03:16:24.348Z,77.47
2022-09-21T03:21:26.547Z,77.74
2022-09-21T03:26:28.718Z,77.73
2022-09-21T03:31:31.630Z,77.92
2022-09-21T03:36:33.856Z,78.41
2022-09-21T03:41:36.015Z,78.18
2022-09-21T03:46:38.154Z,78.37
2022-09-21T03:51:40.767Z,78.53
2022-09-21T03:56:43.011Z,78.63
2022-09-21T04:01:45.234Z,78.88
2022-09-21T04:06:47.395Z,79.13
2022-09-21T04:11:49.570Z,79.26
2022-09-21T04:16:52.317Z,79.55
2022-09-21T04:21:56.225Z,79.72
2022-09-21T04:26:58.435Z,80.01
2022-09-21T04:32:00.640Z,80.19
2022-09-21T04:37:02.888Z,80.30
2022-09-21T04:42:05.772Z,80.28
2022-09-21T04:47:08.044Z,80.74
2022-09-21T04:52:10.200Z,80.71
2022-09-21T04:57:12.950Z,81.07
2022-09-21T05:02:15.168Z,81.16
2022-09-21T05:07:17.591Z,81.02
2022-09-21T05:12:22.677Z,81.37
2022-09-21T05:17:24.947Z,81.37
2022-09-21T05:22:28.108Z,81.07
2022-09-21T05:27:30.222Z,81.33
2022-09-21T05:32:58.249Z,82.30
2022-09-21T05:38:17.893Z,82.22
2022-09-21T05:43:20.449Z,81.66
2022-09-21T05:48:43.424Z,82.46
2022-09-21T05:54:05.108Z,82.72
2022-09-21T05:59:07.190Z,82.15
2022-09-21T06:04:14.095Z,82.46
2022-09-21T06:09:16.271Z,82.14
2022-09-21T06:14:24.801Z,82.43
2022-09-21T06:19:27.567Z,82.51
2022-09-21T06:24:29.719Z,82.53
2022-09-21T06:29:31.886Z,82.52
2022-09-21T06:34:34.044Z,82.40
2022-09-21T06:39:36.199Z,82.84
2022-09-21T06:44:38.372Z,82.91
2022-09-21T06:49:42.656Z,82.98
2022-09-21T06:54:45.005Z,83.06
2022-09-21T06:59:47.292Z,83.59
2022-09-21T07:04:49.448Z,83.62
2022-09-21T07:10:11.469Z,83.97
2022-09-21T07:15:15.663Z,83.95
2022-09-21T07:20:18.041Z,83.91
2022-09-21T07:25:20.185Z,83.80
2022-09-21T07:30:22.308Z,83.48
2022-09-21T07:35:24.983Z,83.30
2022-09-21T07:40:27.273Z,82.83
2022-09-21T07:45:31.561Z,82.33
2022-09-21T07:50:34.418Z,82.48
2022-09-21T07:55:36.596Z,82.49
2022-09-21T08:00:38.908Z,82.49
2022-09-21T08:05:41.055Z,82.22
2022-09-21T08:10:43.236Z,82.17
2022-09-21T08:15:49.787Z,82.00
2022-09-21T08:21:00.112Z,81.68
2022-09-21T08:26:03.880Z,81.35
2022-09-21T08:31:11.047Z,80.98
2022-09-21T08:36:13.431Z,80.69
2022-09-21T08:41:30.786Z,80.33
2022-09-21T08:46:34.927Z,79.89
2022-09-21T08:51:45.958Z,79.92
2022-09-21T08:57:04.448Z,79.50
2022-09-21T09:02:07.482Z,79.54
2022-09-21T09:07:15.287Z,79.35
2022-09-21T09:12:34.356Z,79.30
2022-09-21T09:17:50.610Z,78.65
2022-09-21T09:23:21.869Z,78.02
2022-09-21T09:28:26.264Z,78.17
2022-09-21T09:33:57.267Z,77.98
2022-09-21T09:39:12.456Z,77.38
2022-09-21T09:44:42.514Z,76.69
2022-09-21T09:49:54.228Z,76.50
2022-09-21T09:54:56.456Z,76.41
2022-09-21T10:00:12.688Z,75.74
2022-09-21T10:05:41.675Z,74.70
2022-09-21T10:10:44.304Z,75.09
2022-09-21T10:15:51.976Z,74.36
2022-09-21T10:21:23.932Z,73.68
2022-09-21T10:26:32.103Z,73.90
2022-09-21T10:31:34.630Z,74.51
2022-09-21T10:36:39.040Z,74.19
2022-09-21T10:41:41.319Z,74.35
2022-09-21T10:46:44.651Z,74.41
2022-09-21T10:51:48.452Z,74.14
2022-09-21T10:57:04.805Z,73.06
2022-09-21T11:02:31.941Z,72.67
2022-09-21T11:07:58.193Z,72.67
2022-09-21T11:13:18.007Z,72.96
2022-09-21T11:18:46.859Z,71.89
2022-09-21T11:24:03.543Z,71.72
2022-09-21T11:29:40.436Z,71.22
2022-09-21T11:34:59.295Z,70.53
2022-09-21T11:40:35.894Z,70.28
2022-09-21T11:45:59.082Z,70.30
2022-09-21T11:51:25.994Z,70.06
2022-09-21T11:56:49.771Z,70.24
2022-09-21T12:02:24.606Z,69.13
2022-09-21T12:08:03.777Z,70.39
2022-09-21T12:13:09.005Z,70.27
2022-09-21T12:18:15.237Z,69.67
2022-09-21T12:23:28.568Z,69.56
2022-09-21T12:28:43.513Z,69.84
2022-09-21T12:33:51.401Z,69.75
2022-09-21T12:39:03.872Z,69.99
2022-09-21T12:44:27.253Z,69.19
2022-09-21T12:49:31.985Z,69.33
2022-09-21T12:54:50.386Z,68.87
2022-09-21T13:00:04.528Z,68.33
2022-09-21T13:05:29.262Z,68.56
2022-09-21T13:10:45.528Z,68.15
2022-09-21T13:15:49.010Z,69.55
2022-09-21T13:20:52.399Z,69.71
2022-09-21T13:26:15.094Z,69.97
2022-09-21T13:31:39.852Z,70.26
2022-09-21T13:36:39.545Z,70.55
2022-09-21T13:42:01.694Z,70.71
2022-09-21T13:47:04.658Z,70.68
2022-09-21T13:52:15.994Z,70.86
2022-09-21T13:57:40.372Z,71.26
2022-09-21T14:02:51.605Z,71.14
2022-09-21T14:08:02.506Z,71.28
2022-09-21T14:13:17.842Z,71.61
2022-09-21T14:18:34.898Z,71.70
2022-09-21T14:23:38.350Z,71.62
2022-09-21T14:28:45.429Z,72.03
2022-09-21T14:33:53.249Z,72.36
2022-09-21T14:38:59.796Z,72.52
2022-09-21T14:44:02.313Z,72.53
2022-09-21T14:49:10.526Z,73.09
2022-09-21T14:54:26.513Z,73.43
2022-09-21T14:59:39.428Z,73.48
2022-09-21T15:04:45.718Z,73.14
2022-09-21T15:10:58.153Z,73.47
2022-09-21T15:16:03.130Z,73.69
2022-09-21T15:21:05.777Z,73.52
2022-09-21T15:26:26.727Z,73.94
2022-09-21T15:31:34.332Z,73.99
2022-09-21T15:36:41.582Z,73.53
2022-09-21T15:41:49.196Z,72.48
2022-09-21T15:46:54.996Z,72.43
2022-09-21T15:52:02.632Z,71.43
2022-09-21T15:57:29.021Z,71.48
2022-09-21T16:02:37.707Z,71.68
2022-09-21T16:07:42.222Z,71.87
2022-09-21T16:12:45.384Z,71.97
2022-09-21T16:17:58.567Z,72.30
2022-09-21T16:23:06.777Z,73.01
2022-09-21T16:28:17.983Z,73.30
2022-09-21T16:33:42.958Z,74.15
2022-09-21T16:38:47.365Z,73.93
2022-09-21T16:43:51.186Z,74.18
2022-09-21T16:48:55.544Z,74.67
2022-09-21T16:53:58.713Z,74.86
2022-09-21T16:59:04.410Z,75.25
2022-09-21T17:04:06.569Z,75.11
2022-09-21T17:09:31.514Z,76.30
2022-09-21T17:14:36.183Z,75.74
2022-09-21T17:19:39.362Z,75.73
2022-09-21T17:24:56.524Z,75.93
2022-09-21T17:30:03.527Z,76.04
2022-09-21T17:35:24.954Z,76.84
2022-09-21T17:40:27.572Z,76.42
2022-09-21T17:45:39.191Z,76.38
2022-09-21T17:50:41.664Z,76.32
2022-09-21T17:55:55.558Z,76.82
2022-09-21T18:01:07.963Z,77.09
2022-09-21T18:06:11.255Z,76.57
2022-09-21T18:11:49.527Z,77.48
2022-09-21T18:17:23.272Z,77.69
2022-09-21T18:23:01.809Z,78.08
2022-09-21T18:28:13.982Z,77.91
2022-09-21T18:33:24.041Z,77.94
2022-09-21T18:38:33.177Z,77.84
2022-09-21T18:43:46.651Z,78.02
2022-09-21T18:48:54.672Z,78.48
2022-09-21T18:53:57.591Z,78.48
2022-09-21T18:59:00.268Z,78.51
2022-09-21T19:04:02.821Z,78.94
2022-09-21T19:09:40.076Z,80.04
2022-09-21T19:14:51.304Z,79.67
2022-09-21T19:20:15.904Z,79.84
2022-09-21T19:25:49.365Z,80.30
2022-09-21T19:31:00.455Z,79.51
2022-09-21T19:36:03.569Z,79.49
2022-09-21T19:41:28.435Z,80.04
2022-09-21T19:46:34.286Z,79.95
2022-09-21T19:51:36.492Z,79.55
2022-09-21T19:57:05.760Z,80.16
2022-09-21T20:02:20.015Z,80.10
2022-09-21T20:07:27.696Z,80.06
2022-09-21T20:12:39.997Z,80.30
2022-09-21T20:17:50.278Z,80.41
2022-09-21T20:22:53.302Z,80.21
2022-09-21T20:27:56.969Z,80.21
2022-09-21T20:33:10.986Z,80.36
2022-09-21T20:38:15.057Z,79.99
2022-09-21T20:43:17.243Z,80.16
2022-09-21T20:48:20.218Z,80.14
2022-09-21T20:53:22.528Z,80.13
2022-09-21T20:58:25.123Z,80.20
2022-09-21T21:03:27.407Z,80.29
2022-09-21T21:08:29.746Z,80.20
2022-09-21T21:13:33.967Z,80.33
2022-09-21T21:18:36.147Z,80.34
2022-09-21T21:23:56.935Z,80.34
2022-09-21T21:28:59.311Z,80.27
2022-09-21T21:34:01.551Z,80.46
2022-09-21T21:39:03.878Z,80.67
2022-09-21T21:44:06.100Z,80.59
2022-09-21T21:49:08.344Z,80.44
2022-09-21T21:54:11.146Z,80.26
2022-09-21T21:59:17.946Z,80.35
2022-09-21T22:04:24.451Z,80.54
2022-09-21T22:09:29.218Z,80.27
2022-09-21T22:14:31.364Z,80.61
2022-09-21T22:19:33.535Z,81.06
2022-09-21T22:24:35.669Z,80.76
2022-09-21T22:29:37.825Z,80.90
2022-09-21T22:34:40.097Z,80.90
2022-09-21T22:39:43.032Z,80.92
2022-09-21T22:44:45.220Z,80.96
2022-09-21T22:49:47.335Z,81.15
2022-09-21T22:54:49.703Z,81.05
2022-09-21T22:59:51.900Z,81.13
2022-09-21T23:04:54.090Z,81.19
2022-09-21T23:09:56.318Z,81.45
2022-09-21T23:14:58.485Z,81.07
2022-09-21T23:20:00.841Z,80.99
2022-09-21T23:25:03.867Z,81.32
2022-09-21T23:30:06.771Z,80.93
2022-09-21T23:35:08.984Z,81.34
2022-09-21T23:40:11.186Z,81.04
2022-09-21T23:45:13.411Z,81.20
2022-09-21T23:50:16.125Z,81.36
2022-09-21T23:55:19.489Z,81.61
